sensor_id;sensor_type;location;lat;lon;timestamp;temperature;humidity
11229;DHT22;5671;47.936;8.716;2023-04-12T00:02:19;6.20;81.60
11229;DHT22;5671;47.936;8.716;2023-04-12T00:04:46;6.20;79.50
11229;DHT22;5671;47.936;8.716;2023-04-12T00:07:20;6.20;80.50
11229;DHT22;5671;47.936;8.716;2023-04-12T00:09:47;6.20;79.30
11229;DHT22;5671;47.936;8.716;2023-04-12T00:12:14;6.20;79.80
11229;DHT22;5671;47.936;8.716;2023-04-12T00:14:42;6.20;81.30
11229;DHT22;5671;47.936;8.716;2023-04-12T00:17:10;6.20;81.50
11229;DHT22;5671;47.936;8.716;2023-04-12T00:19:37;6.10;81.30
11229;DHT22;5671;47.936;8.716;2023-04-12T00:22:06;6.20;80.90
11229;DHT22;5671;47.936;8.716;2023-04-12T00:24:33;6.10;80.90
11229;DHT22;5671;47.936;8.716;2023-04-12T00:27:00;6.20;80.10
11229;DHT22;5671;47.936;8.716;2023-04-12T00:29:27;6.10;79.50
11229;DHT22;5671;47.936;8.716;2023-04-12T00:31:54;6.10;80.20
11229;DHT22;5671;47.936;8.716;2023-04-12T00:34:22;6.10;80.30
11229;DHT22;5671;47.936;8.716;2023-04-12T00:36:49;6.10;82.00
11229;DHT22;5671;47.936;8.716;2023-04-12T00:39:16;6.10;80.40
11229;DHT22;5671;47.936;8.716;2023-04-12T00:41:42;6.10;81.70
11229;DHT22;5671;47.936;8.716;2023-04-12T00:44:09;6.10;81.40
11229;DHT22;5671;47.936;8.716;2023-04-12T00:46:36;6.00;80.80
11229;DHT22;5671;47.936;8.716;2023-04-12T00:49:03;6.10;80.90
11229;DHT22;5671;47.936;8.716;2023-04-12T00:51:32;6.00;82.30
11229;DHT22;5671;47.936;8.716;2023-04-12T00:53:59;6.00;82.50
11229;DHT22;5671;47.936;8.716;2023-04-12T00:56:27;6.00;81.90
11229;DHT22;5671;47.936;8.716;2023-04-12T00:58:57;6.00;81.40
11229;DHT22;5671;47.936;8.716;2023-04-12T01:01:24;6.00;80.50
11229;DHT22;5671;47.936;8.716;2023-04-12T01:03:53;6.00;81.00
11229;DHT22;5671;47.936;8.716;2023-04-12T01:06:39;6.00;83.00
11229;DHT22;5671;47.936;8.716;2023-04-12T01:09:14;6.00;82.60
11229;DHT22;5671;47.936;8.716;2023-04-12T01:11:50;6.00;82.60
11229;DHT22;5671;47.936;8.716;2023-04-12T01:14:27;6.00;82.80
11229;DHT22;5671;47.936;8.716;2023-04-12T01:16:58;6.00;82.50
11229;DHT22;5671;47.936;8.716;2023-04-12T01:19:36;6.00;82.10
11229;DHT22;5671;47.936;8.716;2023-04-12T01:22:19;6.00;82.10
11229;DHT22;5671;47.936;8.716;2023-04-12T01:25:03;6.00;81.30
11229;DHT22;5671;47.936;8.716;2023-04-12T01:27:44;6.00;80.40
11229;DHT22;5671;47.936;8.716;2023-04-12T01:30:13;6.00;79.30
11229;DHT22;5671;47.936;8.716;2023-04-12T01:32:43;6.00;82.20
11229;DHT22;5671;47.936;8.716;2023-04-12T01:35:12;6.00;80.50
11229;DHT22;5671;47.936;8.716;2023-04-12T01:37:39;6.00;80.90
11229;DHT22;5671;47.936;8.716;2023-04-12T01:40:07;6.00;79.70
11229;DHT22;5671;47.936;8.716;2023-04-12T01:42:34;6.00;80.40
11229;DHT22;5671;47.936;8.716;2023-04-12T01:45:03;5.90;79.60
11229;DHT22;5671;47.936;8.716;2023-04-12T01:47:30;5.90;80.90
11229;DHT22;5671;47.936;8.716;2023-04-12T01:50:10;6.00;80.10
11229;DHT22;5671;47.936;8.716;2023-04-12T01:52:41;5.90;81.90
11229;DHT22;5671;47.936;8.716;2023-04-12T01:55:11;5.90;80.70
11229;DHT22;5671;47.936;8.716;2023-04-12T01:57:40;5.90;79.80
11229;DHT22;5671;47.936;8.716;2023-04-12T02:00:11;5.90;79.80
11229;DHT22;5671;47.936;8.716;2023-04-12T02:02:38;5.90;80.00
11229;DHT22;5671;47.936;8.716;2023-04-12T02:05:06;5.90;80.40
11229;DHT22;5671;47.936;8.716;2023-04-12T02:07:34;5.90;80.10
11229;DHT22;5671;47.936;8.716;2023-04-12T02:10:01;5.90;80.50
11229;DHT22;5671;47.936;8.716;2023-04-12T02:12:28;5.90;80.60
11229;DHT22;5671;47.936;8.716;2023-04-12T02:14:55;5.90;80.60
11229;DHT22;5671;47.936;8.716;2023-04-12T02:17:24;5.90;81.30
11229;DHT22;5671;47.936;8.716;2023-04-12T02:19:50;5.90;80.80
11229;DHT22;5671;47.936;8.716;2023-04-12T02:22:17;5.90;80.70
11229;DHT22;5671;47.936;8.716;2023-04-12T02:24:44;5.80;81.50
11229;DHT22;5671;47.936;8.716;2023-04-12T02:27:12;5.80;80.70
11229;DHT22;5671;47.936;8.716;2023-04-12T02:29:39;5.80;81.30
11229;DHT22;5671;47.936;8.716;2023-04-12T02:32:05;5.80;81.10
11229;DHT22;5671;47.936;8.716;2023-04-12T02:34:33;5.80;81.20
11229;DHT22;5671;47.936;8.716;2023-04-12T02:37:02;5.80;81.20
11229;DHT22;5671;47.936;8.716;2023-04-12T02:39:29;5.80;81.00
11229;DHT22;5671;47.936;8.716;2023-04-12T02:41:59;5.80;81.00
11229;DHT22;5671;47.936;8.716;2023-04-12T02:44:28;5.80;81.20
11229;DHT22;5671;47.936;8.716;2023-04-12T02:46:55;5.80;81.70
11229;DHT22;5671;47.936;8.716;2023-04-12T02:49:21;5.80;81.10
11229;DHT22;5671;47.936;8.716;2023-04-12T02:51:50;5.80;80.80
11229;DHT22;5671;47.936;8.716;2023-04-12T02:54:16;5.80;82.30
11229;DHT22;5671;47.936;8.716;2023-04-12T02:56:43;5.80;81.60
11229;DHT22;5671;47.936;8.716;2023-04-12T02:59:10;5.80;81.60
11229;DHT22;5671;47.936;8.716;2023-04-12T03:01:37;5.80;81.30
11229;DHT22;5671;47.936;8.716;2023-04-12T03:04:04;5.80;81.40
11229;DHT22;5671;47.936;8.716;2023-04-12T03:06:32;5.90;81.80
11229;DHT22;5671;47.936;8.716;2023-04-12T03:09:00;5.80;81.90
11229;DHT22;5671;47.936;8.716;2023-04-12T03:11:27;5.80;81.30
11229;DHT22;5671;47.936;8.716;2023-04-12T03:13:54;5.80;81.60
11229;DHT22;5671;47.936;8.716;2023-04-12T03:16:24;5.80;81.90
11229;DHT22;5671;47.936;8.716;2023-04-12T03:18:54;5.80;81.50
11229;DHT22;5671;47.936;8.716;2023-04-12T03:21:21;5.80;81.20
11229;DHT22;5671;47.936;8.716;2023-04-12T03:23:48;5.80;82.90
11229;DHT22;5671;47.936;8.716;2023-04-12T03:26:17;5.80;81.90
11229;DHT22;5671;47.936;8.716;2023-04-12T03:28:45;5.80;82.20
11229;DHT22;5671;47.936;8.716;2023-04-12T03:31:12;5.80;82.00
11229;DHT22;5671;47.936;8.716;2023-04-12T03:33:38;5.80;82.00
11229;DHT22;5671;47.936;8.716;2023-04-12T03:36:07;5.80;81.40
11229;DHT22;5671;47.936;8.716;2023-04-12T03:38:34;5.80;82.00
11229;DHT22;5671;47.936;8.716;2023-04-12T03:41:01;5.80;82.50
11229;DHT22;5671;47.936;8.716;2023-04-12T03:43:29;5.80;82.50
11229;DHT22;5671;47.936;8.716;2023-04-12T03:46:00;5.80;82.20
11229;DHT22;5671;47.936;8.716;2023-04-12T03:48:27;5.80;82.90
11229;DHT22;5671;47.936;8.716;2023-04-12T03:50:54;5.80;83.10
11229;DHT22;5671;47.936;8.716;2023-04-12T03:53:24;5.70;83.30
11229;DHT22;5671;47.936;8.716;2023-04-12T03:55:51;5.70;83.00
11229;DHT22;5671;47.936;8.716;2023-04-12T03:58:19;5.70;83.10
11229;DHT22;5671;47.936;8.716;2023-04-12T04:00:47;5.70;83.10
11229;DHT22;5671;47.936;8.716;2023-04-12T04:03:14;5.70;83.50
11229;DHT22;5671;47.936;8.716;2023-04-12T04:05:41;5.70;83.60
11229;DHT22;5671;47.936;8.716;2023-04-12T04:08:08;5.60;83.70
11229;DHT22;5671;47.936;8.716;2023-04-12T04:10:35;5.60;83.50
11229;DHT22;5671;47.936;8.716;2023-04-12T04:13:03;5.60;83.90
11229;DHT22;5671;47.936;8.716;2023-04-12T04:15:29;5.60;83.80
11229;DHT22;5671;47.936;8.716;2023-04-12T04:17:58;5.60;83.80
11229;DHT22;5671;47.936;8.716;2023-04-12T04:20:25;5.60;83.90
11229;DHT22;5671;47.936;8.716;2023-04-12T04:22:52;5.50;84.00
11229;DHT22;5671;47.936;8.716;2023-04-12T04:25:18;5.50;84.10
11229;DHT22;5671;47.936;8.716;2023-04-12T04:27:46;5.50;84.00
11229;DHT22;5671;47.936;8.716;2023-04-12T04:30:14;5.50;84.10
11229;DHT22;5671;47.936;8.716;2023-04-12T04:32:41;5.50;84.00
11229;DHT22;5671;47.936;8.716;2023-04-12T04:35:10;5.50;83.80
11229;DHT22;5671;47.936;8.716;2023-04-12T04:37:41;5.50;83.90
11229;DHT22;5671;47.936;8.716;2023-04-12T04:40:08;5.40;84.30
11229;DHT22;5671;47.936;8.716;2023-04-12T04:42:36;5.40;84.30
11229;DHT22;5671;47.936;8.716;2023-04-12T04:45:05;5.40;84.30
11229;DHT22;5671;47.936;8.716;2023-04-12T04:47:38;5.40;84.20
11229;DHT22;5671;47.936;8.716;2023-04-12T04:50:06;5.40;84.30
11229;DHT22;5671;47.936;8.716;2023-04-12T04:52:34;5.40;84.10
11229;DHT22;5671;47.936;8.716;2023-04-12T04:55:02;5.40;84.30
11229;DHT22;5671;47.936;8.716;2023-04-12T04:57:29;5.40;84.20
11229;DHT22;5671;47.936;8.716;2023-04-12T04:59:56;5.40;84.20
11229;DHT22;5671;47.936;8.716;2023-04-12T05:02:22;5.40;84.10
11229;DHT22;5671;47.936;8.716;2023-04-12T05:04:50;5.40;84.30
11229;DHT22;5671;47.936;8.716;2023-04-12T05:07:17;5.40;84.90
11229;DHT22;5671;47.936;8.716;2023-04-12T05:09:45;5.40;84.70
11229;DHT22;5671;47.936;8.716;2023-04-12T05:12:12;5.40;84.90
11229;DHT22;5671;47.936;8.716;2023-04-12T05:14:39;5.40;84.80
11229;DHT22;5671;47.936;8.716;2023-04-12T05:17:07;5.40;85.00
11229;DHT22;5671;47.936;8.716;2023-04-12T05:19:34;5.40;85.00
11229;DHT22;5671;47.936;8.716;2023-04-12T05:22:01;5.40;84.90
11229;DHT22;5671;47.936;8.716;2023-04-12T05:24:28;5.40;85.20
11229;DHT22;5671;47.936;8.716;2023-04-12T05:26:56;5.40;85.10
11229;DHT22;5671;47.936;8.716;2023-04-12T05:29:23;5.40;85.10
11229;DHT22;5671;47.936;8.716;2023-04-12T05:31:50;5.40;85.00
11229;DHT22;5671;47.936;8.716;2023-04-12T05:34:16;5.40;85.10
11229;DHT22;5671;47.936;8.716;2023-04-12T05:36:43;5.40;85.00
11229;DHT22;5671;47.936;8.716;2023-04-12T05:39:10;5.40;85.10
11229;DHT22;5671;47.936;8.716;2023-04-12T05:41:37;5.40;85.20
11229;DHT22;5671;47.936;8.716;2023-04-12T05:44:05;5.50;85.30
11229;DHT22;5671;47.936;8.716;2023-04-12T05:46:32;5.50;85.10
11229;DHT22;5671;47.936;8.716;2023-04-12T05:48:58;5.50;85.50
11229;DHT22;5671;47.936;8.716;2023-04-12T05:51:25;5.50;85.00
11229;DHT22;5671;47.936;8.716;2023-04-12T05:53:52;5.50;85.10
11229;DHT22;5671;47.936;8.716;2023-04-12T05:56:19;5.50;85.30
11229;DHT22;5671;47.936;8.716;2023-04-12T05:58:46;5.50;85.40
11229;DHT22;5671;47.936;8.716;2023-04-12T06:01:15;5.50;85.50
11229;DHT22;5671;47.936;8.716;2023-04-12T06:03:43;5.50;85.20
11229;DHT22;5671;47.936;8.716;2023-04-12T06:06:10;5.60;85.00
11229;DHT22;5671;47.936;8.716;2023-04-12T06:08:37;5.60;85.20
11229;DHT22;5671;47.936;8.716;2023-04-12T06:11:04;5.60;85.50
11229;DHT22;5671;47.936;8.716;2023-04-12T06:13:32;5.60;85.30
11229;DHT22;5671;47.936;8.716;2023-04-12T06:15:59;5.60;85.40
11229;DHT22;5671;47.936;8.716;2023-04-12T06:18:27;5.60;85.30
11229;DHT22;5671;47.936;8.716;2023-04-12T06:20:54;5.60;85.50
11229;DHT22;5671;47.936;8.716;2023-04-12T06:23:21;5.60;85.00
11229;DHT22;5671;47.936;8.716;2023-04-12T06:25:48;5.60;85.00
11229;DHT22;5671;47.936;8.716;2023-04-12T06:28:15;5.60;85.30
11229;DHT22;5671;47.936;8.716;2023-04-12T06:30:42;5.70;84.80
11229;DHT22;5671;47.936;8.716;2023-04-12T06:33:08;5.70;85.00
11229;DHT22;5671;47.936;8.716;2023-04-12T06:35:37;5.70;85.10
11229;DHT22;5671;47.936;8.716;2023-04-12T06:38:03;5.70;85.30
11229;DHT22;5671;47.936;8.716;2023-04-12T06:40:30;5.70;85.00
11229;DHT22;5671;47.936;8.716;2023-04-12T06:42:57;5.70;84.80
11229;DHT22;5671;47.936;8.716;2023-04-12T06:45:24;5.80;86.40
11229;DHT22;5671;47.936;8.716;2023-04-12T06:47:51;5.80;86.30
11229;DHT22;5671;47.936;8.716;2023-04-12T06:50:20;5.80;85.00
11229;DHT22;5671;47.936;8.716;2023-04-12T06:52:48;5.80;85.10
11229;DHT22;5671;47.936;8.716;2023-04-12T06:55:15;5.90;85.10
11229;DHT22;5671;47.936;8.716;2023-04-12T06:57:42;5.90;85.30
11229;DHT22;5671;47.936;8.716;2023-04-12T07:00:10;6.00;85.30
11229;DHT22;5671;47.936;8.716;2023-04-12T07:02:37;6.00;84.60
11229;DHT22;5671;47.936;8.716;2023-04-12T07:05:05;6.10;84.70
11229;DHT22;5671;47.936;8.716;2023-04-12T07:07:31;6.10;84.30
11229;DHT22;5671;47.936;8.716;2023-04-12T07:09:59;6.20;83.90
11229;DHT22;5671;47.936;8.716;2023-04-12T07:12:28;6.20;84.10
11229;DHT22;5671;47.936;8.716;2023-04-12T07:14:55;6.20;83.50
11229;DHT22;5671;47.936;8.716;2023-04-12T07:17:23;6.20;83.80
11229;DHT22;5671;47.936;8.716;2023-04-12T07:19:51;6.20;83.60
11229;DHT22;5671;47.936;8.716;2023-04-12T07:22:18;6.20;83.50
11229;DHT22;5671;47.936;8.716;2023-04-12T07:24:45;6.30;83.30
11229;DHT22;5671;47.936;8.716;2023-04-12T07:27:13;6.30;83.70
11229;DHT22;5671;47.936;8.716;2023-04-12T07:29:40;6.40;83.90
11229;DHT22;5671;47.936;8.716;2023-04-12T07:32:07;6.40;84.10
11229;DHT22;5671;47.936;8.716;2023-04-12T07:34:35;6.40;85.30
11229;DHT22;5671;47.936;8.716;2023-04-12T07:37:02;6.40;85.00
11229;DHT22;5671;47.936;8.716;2023-04-12T07:39:29;6.50;85.40
11229;DHT22;5671;47.936;8.716;2023-04-12T07:41:56;6.50;85.70
11229;DHT22;5671;47.936;8.716;2023-04-12T07:44:24;6.60;85.20
11229;DHT22;5671;47.936;8.716;2023-04-12T07:46:51;6.70;84.30
11229;DHT22;5671;47.936;8.716;2023-04-12T07:49:18;6.70;84.30
11229;DHT22;5671;47.936;8.716;2023-04-12T07:51:44;6.80;84.20
11229;DHT22;5671;47.936;8.716;2023-04-12T07:54:11;6.90;83.40
11229;DHT22;5671;47.936;8.716;2023-04-12T07:56:38;7.00;83.40
11229;DHT22;5671;47.936;8.716;2023-04-12T07:59:05;7.10;83.40
11229;DHT22;5671;47.936;8.716;2023-04-12T08:01:33;7.20;82.90
11229;DHT22;5671;47.936;8.716;2023-04-12T08:04:00;7.40;84.60
11229;DHT22;5671;47.936;8.716;2023-04-12T08:06:27;7.40;82.80
11229;DHT22;5671;47.936;8.716;2023-04-12T08:08:54;7.60;83.30
11229;DHT22;5671;47.936;8.716;2023-04-12T08:11:21;7.70;82.60
11229;DHT22;5671;47.936;8.716;2023-04-12T08:13:48;7.90;81.30
11229;DHT22;5671;47.936;8.716;2023-04-12T08:16:15;8.00;82.30
11229;DHT22;5671;47.936;8.716;2023-04-12T08:18:43;8.10;80.10
11229;DHT22;5671;47.936;8.716;2023-04-12T08:21:10;8.10;80.70
11229;DHT22;5671;47.936;8.716;2023-04-12T08:23:37;8.20;81.70
11229;DHT22;5671;47.936;8.716;2023-04-12T08:26:04;8.30;82.50
11229;DHT22;5671;47.936;8.716;2023-04-12T08:28:31;8.40;79.90
11229;DHT22;5671;47.936;8.716;2023-04-12T08:30:58;8.50;81.40
11229;DHT22;5671;47.936;8.716;2023-04-12T08:33:25;8.60;80.40
11229;DHT22;5671;47.936;8.716;2023-04-12T08:35:53;8.80;80.40
11229;DHT22;5671;47.936;8.716;2023-04-12T08:38:21;9.00;78.70
11229;DHT22;5671;47.936;8.716;2023-04-12T08:40:48;9.10;78.00
11229;DHT22;5671;47.936;8.716;2023-04-12T08:43:17;9.10;78.20
11229;DHT22;5671;47.936;8.716;2023-04-12T08:45:44;9.20;77.70
11229;DHT22;5671;47.936;8.716;2023-04-12T08:48:11;9.30;78.50
11229;DHT22;5671;47.936;8.716;2023-04-12T08:50:41;9.40;75.90
11229;DHT22;5671;47.936;8.716;2023-04-12T08:53:10;9.60;76.20
11229;DHT22;5671;47.936;8.716;2023-04-12T08:55:37;9.70;77.00
11229;DHT22;5671;47.936;8.716;2023-04-12T08:58:05;9.90;75.30
11229;DHT22;5671;47.936;8.716;2023-04-12T09:00:36;10.00;74.40
11229;DHT22;5671;47.936;8.716;2023-04-12T09:03:03;10.10;75.10
11229;DHT22;5671;47.936;8.716;2023-04-12T09:05:30;10.20;77.00
11229;DHT22;5671;47.936;8.716;2023-04-12T09:07:58;10.30;75.00
11229;DHT22;5671;47.936;8.716;2023-04-12T09:10:33;10.30;74.40
11229;DHT22;5671;47.936;8.716;2023-04-12T09:13:01;10.40;73.40
11229;DHT22;5671;47.936;8.716;2023-04-12T09:15:28;10.40;73.10
11229;DHT22;5671;47.936;8.716;2023-04-12T09:18:04;10.50;75.30
11229;DHT22;5671;47.936;8.716;2023-04-12T09:20:31;10.60;72.10
11229;DHT22;5671;47.936;8.716;2023-04-12T09:22:58;10.60;69.20
11229;DHT22;5671;47.936;8.716;2023-04-12T09:25:39;10.50;67.80
11229;DHT22;5671;47.936;8.716;2023-04-12T09:28:22;10.50;69.40
11229;DHT22;5671;47.936;8.716;2023-04-12T09:30:49;10.50;68.70
11229;DHT22;5671;47.936;8.716;2023-04-12T09:33:19;10.60;69.10
11229;DHT22;5671;47.936;8.716;2023-04-12T09:35:47;10.60;70.30
11229;DHT22;5671;47.936;8.716;2023-04-12T09:38:14;10.80;69.20
11229;DHT22;5671;47.936;8.716;2023-04-12T09:40:43;10.70;66.80
11229;DHT22;5671;47.936;8.716;2023-04-12T09:43:09;10.70;67.10
11229;DHT22;5671;47.936;8.716;2023-04-12T09:45:37;10.50;65.00
11229;DHT22;5671;47.936;8.716;2023-04-12T09:48:06;10.50;66.60
11229;DHT22;5671;47.936;8.716;2023-04-12T09:50:33;10.50;68.90
11229;DHT22;5671;47.936;8.716;2023-04-12T09:53:14;10.40;67.40
11229;DHT22;5671;47.936;8.716;2023-04-12T09:55:44;10.30;67.40
11229;DHT22;5671;47.936;8.716;2023-04-12T09:58:12;10.40;67.50
11229;DHT22;5671;47.936;8.716;2023-04-12T10:00:43;10.50;69.30
11229;DHT22;5671;47.936;8.716;2023-04-12T10:03:11;10.60;69.40
11229;DHT22;5671;47.936;8.716;2023-04-12T10:05:38;10.70;68.10
11229;DHT22;5671;47.936;8.716;2023-04-12T10:08:06;10.70;67.00
11229;DHT22;5671;47.936;8.716;2023-04-12T10:10:34;10.70;65.70
11229;DHT22;5671;47.936;8.716;2023-04-12T10:13:02;10.70;67.90
11229;DHT22;5671;47.936;8.716;2023-04-12T10:15:30;10.70;65.70
11229;DHT22;5671;47.936;8.716;2023-04-12T10:17:57;10.80;66.50
11229;DHT22;5671;47.936;8.716;2023-04-12T10:20:25;10.70;67.00
11229;DHT22;5671;47.936;8.716;2023-04-12T10:22:52;10.70;66.90
11229;DHT22;5671;47.936;8.716;2023-04-12T10:25:21;10.70;66.50
11229;DHT22;5671;47.936;8.716;2023-04-12T10:27:49;10.70;64.90
11229;DHT22;5671;47.936;8.716;2023-04-12T10:30:25;10.70;66.00
11229;DHT22;5671;47.936;8.716;2023-04-12T10:33:13;10.80;65.80
11229;DHT22;5671;47.936;8.716;2023-04-12T10:35:55;10.80;65.70
11229;DHT22;5671;47.936;8.716;2023-04-12T10:38:25;10.70;65.20
11229;DHT22;5671;47.936;8.716;2023-04-12T10:41:15;10.70;66.10
11229;DHT22;5671;47.936;8.716;2023-04-12T10:43:43;10.70;65.60
11229;DHT22;5671;47.936;8.716;2023-04-12T10:46:48;10.70;66.40
11229;DHT22;5671;47.936;8.716;2023-04-12T10:49:15;10.60;64.90
11229;DHT22;5671;47.936;8.716;2023-04-12T10:54:40;10.60;64.90
11229;DHT22;5671;47.936;8.716;2023-04-12T10:57:39;10.60;64.00
11229;DHT22;5671;47.936;8.716;2023-04-12T11:00:08;10.60;64.60
11229;DHT22;5671;47.936;8.716;2023-04-12T11:03:03;10.70;65.10
11229;DHT22;5671;47.936;8.716;2023-04-12T11:05:57;10.80;65.40
11229;DHT22;5671;47.936;8.716;2023-04-12T11:08:26;10.90;64.40
11229;DHT22;5671;47.936;8.716;2023-04-12T11:10:59;11.00;63.80
11229;DHT22;5671;47.936;8.716;2023-04-12T11:13:28;11.10;64.30
11229;DHT22;5671;47.936;8.716;2023-04-12T11:15:55;11.10;64.20
11229;DHT22;5671;47.936;8.716;2023-04-12T11:18:24;11.20;64.70
11229;DHT22;5671;47.936;8.716;2023-04-12T11:20:51;11.30;63.60
11229;DHT22;5671;47.936;8.716;2023-04-12T11:23:18;11.40;64.20
11229;DHT22;5671;47.936;8.716;2023-04-12T11:25:49;11.30;64.30
11229;DHT22;5671;47.936;8.716;2023-04-12T11:28:17;11.30;63.90
11229;DHT22;5671;47.936;8.716;2023-04-12T11:30:48;11.40;64.20
11229;DHT22;5671;47.936;8.716;2023-04-12T11:33:33;11.30;64.70
11229;DHT22;5671;47.936;8.716;2023-04-12T11:36:03;11.20;64.70
11229;DHT22;5671;47.936;8.716;2023-04-12T11:38:31;11.40;65.10
11229;DHT22;5671;47.936;8.716;2023-04-12T11:40:58;11.50;66.00
11229;DHT22;5671;47.936;8.716;2023-04-12T11:43:25;11.50;65.90
11229;DHT22;5671;47.936;8.716;2023-04-12T11:45:55;11.70;66.60
11229;DHT22;5671;47.936;8.716;2023-04-12T11:48:24;11.80;65.60
11229;DHT22;5671;47.936;8.716;2023-04-12T11:50:52;11.90;63.90
11229;DHT22;5671;47.936;8.716;2023-04-12T11:53:19;11.90;63.40
11229;DHT22;5671;47.936;8.716;2023-04-12T11:55:49;11.80;63.60
11229;DHT22;5671;47.936;8.716;2023-04-12T11:58:16;11.80;64.90
11229;DHT22;5671;47.936;8.716;2023-04-12T12:00:47;11.90;64.40
11229;DHT22;5671;47.936;8.716;2023-04-12T12:03:14;12.00;64.20
11229;DHT22;5671;47.936;8.716;2023-04-12T12:05:41;12.20;66.30
11229;DHT22;5671;47.936;8.716;2023-04-12T12:08:10;12.50;62.60
11229;DHT22;5671;47.936;8.716;2023-04-12T12:10:38;12.40;62.60
11229;DHT22;5671;47.936;8.716;2023-04-12T12:13:09;12.60;63.90
11229;DHT22;5671;47.936;8.716;2023-04-12T12:15:36;12.70;63.50
11229;DHT22;5671;47.936;8.716;2023-04-12T12:18:06;13.00;63.10
11229;DHT22;5671;47.936;8.716;2023-04-12T12:20:38;13.10;61.30
11229;DHT22;5671;47.936;8.716;2023-04-12T12:23:05;13.20;62.80
11229;DHT22;5671;47.936;8.716;2023-04-12T12:25:34;13.40;61.00
11229;DHT22;5671;47.936;8.716;2023-04-12T12:28:01;13.40;60.80
11229;DHT22;5671;47.936;8.716;2023-04-12T12:30:30;13.20;59.70
11229;DHT22;5671;47.936;8.716;2023-04-12T12:32:57;13.10;62.20
11229;DHT22;5671;47.936;8.716;2023-04-12T12:35:24;13.30;61.00
11229;DHT22;5671;47.936;8.716;2023-04-12T12:37:52;13.60;59.20
11229;DHT22;5671;47.936;8.716;2023-04-12T12:40:28;13.70;58.50
11229;DHT22;5671;47.936;8.716;2023-04-12T12:42:58;13.90;58.00
11229;DHT22;5671;47.936;8.716;2023-04-12T12:45:27;14.20;58.90
11229;DHT22;5671;47.936;8.716;2023-04-12T12:47:56;14.70;58.80
11229;DHT22;5671;47.936;8.716;2023-04-12T12:50:25;14.80;56.20
11229;DHT22;5671;47.936;8.716;2023-04-12T12:52:53;14.80;55.20
11229;DHT22;5671;47.936;8.716;2023-04-12T12:55:21;14.90;57.00
11229;DHT22;5671;47.936;8.716;2023-04-12T12:57:50;15.00;56.30
11229;DHT22;5671;47.936;8.716;2023-04-12T13:00:20;14.80;56.50
11229;DHT22;5671;47.936;8.716;2023-04-12T13:02:47;14.30;55.80
11229;DHT22;5671;47.936;8.716;2023-04-12T13:05:15;13.90;56.40
11229;DHT22;5671;47.936;8.716;2023-04-12T13:07:42;13.70;57.30
11229;DHT22;5671;47.936;8.716;2023-04-12T13:10:10;13.70;58.40
11229;DHT22;5671;47.936;8.716;2023-04-12T13:12:37;13.70;59.40
11229;DHT22;5671;47.936;8.716;2023-04-12T13:15:05;13.60;58.30
11229;DHT22;5671;47.936;8.716;2023-04-12T13:17:33;13.50;58.60
11229;DHT22;5671;47.936;8.716;2023-04-12T13:20:00;13.40;58.70
11229;DHT22;5671;47.936;8.716;2023-04-12T13:22:28;13.30;60.20
11229;DHT22;5671;47.936;8.716;2023-04-12T13:24:55;13.50;59.60
11229;DHT22;5671;47.936;8.716;2023-04-12T13:27:22;13.40;60.50
11229;DHT22;5671;47.936;8.716;2023-04-12T13:29:49;13.30;58.40
11229;DHT22;5671;47.936;8.716;2023-04-12T13:32:16;13.00;58.00
11229;DHT22;5671;47.936;8.716;2023-04-12T13:34:44;12.90;60.00
11229;DHT22;5671;47.936;8.716;2023-04-12T13:37:11;12.90;60.40
11229;DHT22;5671;47.936;8.716;2023-04-12T13:39:38;12.80;60.10
11229;DHT22;5671;47.936;8.716;2023-04-12T13:42:05;12.80;60.80
11229;DHT22;5671;47.936;8.716;2023-04-12T13:44:32;12.80;61.60
11229;DHT22;5671;47.936;8.716;2023-04-12T13:46:59;12.70;61.40
11229;DHT22;5671;47.936;8.716;2023-04-12T13:49:47;12.70;63.00
11229;DHT22;5671;47.936;8.716;2023-04-12T13:52:18;12.70;61.80
11229;DHT22;5671;47.936;8.716;2023-04-12T13:54:48;12.40;62.20
11229;DHT22;5671;47.936;8.716;2023-04-12T13:57:25;12.30;63.00
11229;DHT22;5671;47.936;8.716;2023-04-12T13:59:53;12.20;63.50
11229;DHT22;5671;47.936;8.716;2023-04-12T14:02:24;12.30;63.40
11229;DHT22;5671;47.936;8.716;2023-04-12T14:04:53;12.30;64.50
11229;DHT22;5671;47.936;8.716;2023-04-12T14:07:21;12.40;64.20
11229;DHT22;5671;47.936;8.716;2023-04-12T14:09:48;12.30;64.10
11229;DHT22;5671;47.936;8.716;2023-04-12T14:12:15;12.40;65.00
11229;DHT22;5671;47.936;8.716;2023-04-12T14:14:42;12.40;64.50
11229;DHT22;5671;47.936;8.716;2023-04-12T14:17:09;12.40;64.60
11229;DHT22;5671;47.936;8.716;2023-04-12T14:19:36;12.20;64.10
11229;DHT22;5671;47.936;8.716;2023-04-12T14:22:04;12.30;64.40
11229;DHT22;5671;47.936;8.716;2023-04-12T14:24:31;12.20;64.30
11229;DHT22;5671;47.936;8.716;2023-04-12T14:26:58;12.20;64.80
11229;DHT22;5671;47.936;8.716;2023-04-12T14:29:25;12.20;65.80
11229;DHT22;5671;47.936;8.716;2023-04-12T14:31:52;12.20;65.70
11229;DHT22;5671;47.936;8.716;2023-04-12T14:34:19;12.40;64.30
11229;DHT22;5671;47.936;8.716;2023-04-12T14:36:45;12.60;64.80
11229;DHT22;5671;47.936;8.716;2023-04-12T14:39:14;12.60;61.00
11229;DHT22;5671;47.936;8.716;2023-04-12T14:41:41;12.40;60.10
11229;DHT22;5671;47.936;8.716;2023-04-12T14:44:08;12.20;62.10
11229;DHT22;5671;47.936;8.716;2023-04-12T14:46:35;12.10;62.50
11229;DHT22;5671;47.936;8.716;2023-04-12T14:49:02;12.00;62.30
11229;DHT22;5671;47.936;8.716;2023-04-12T14:51:28;11.80;62.20
11229;DHT22;5671;47.936;8.716;2023-04-12T14:53:56;11.80;63.30
11229;DHT22;5671;47.936;8.716;2023-04-12T14:56:25;11.80;62.40
11229;DHT22;5671;47.936;8.716;2023-04-12T14:58:58;11.70;62.90
11229;DHT22;5671;47.936;8.716;2023-04-12T15:01:25;11.70;63.10
11229;DHT22;5671;47.936;8.716;2023-04-12T15:03:55;11.70;60.90
11229;DHT22;5671;47.936;8.716;2023-04-12T15:06:22;11.60;61.10
11229;DHT22;5671;47.936;8.716;2023-04-12T15:08:51;11.60;62.60
11229;DHT22;5671;47.936;8.716;2023-04-12T15:11:19;11.70;62.20
11229;DHT22;5671;47.936;8.716;2023-04-12T15:13:52;11.70;61.80
11229;DHT22;5671;47.936;8.716;2023-04-12T15:16:22;11.60;61.80
11229;DHT22;5671;47.936;8.716;2023-04-12T15:18:49;11.60;60.10
11229;DHT22;5671;47.936;8.716;2023-04-12T15:21:16;11.50;60.50
11229;DHT22;5671;47.936;8.716;2023-04-12T15:23:43;11.40;60.70
11229;DHT22;5671;47.936;8.716;2023-04-12T15:26:10;11.30;61.10
11229;DHT22;5671;47.936;8.716;2023-04-12T15:28:39;11.20;60.90
11229;DHT22;5671;47.936;8.716;2023-04-12T15:31:07;11.10;61.00
11229;DHT22;5671;47.936;8.716;2023-04-12T15:33:36;11.00;62.00
11229;DHT22;5671;47.936;8.716;2023-04-12T15:36:03;11.00;62.40
11229;DHT22;5671;47.936;8.716;2023-04-12T15:38:30;11.00;62.30
11229;DHT22;5671;47.936;8.716;2023-04-12T15:40:59;11.00;62.90
11229;DHT22;5671;47.936;8.716;2023-04-12T15:43:26;11.00;62.00
11229;DHT22;5671;47.936;8.716;2023-04-12T15:45:53;10.90;61.50
11229;DHT22;5671;47.936;8.716;2023-04-12T15:48:23;10.80;62.10
11229;DHT22;5671;47.936;8.716;2023-04-12T15:50:51;10.80;62.40
11229;DHT22;5671;47.936;8.716;2023-04-12T15:53:19;10.80;61.80
11229;DHT22;5671;47.936;8.716;2023-04-12T15:55:46;10.70;62.20
11229;DHT22;5671;47.936;8.716;2023-04-12T15:58:13;10.50;61.60
11229;DHT22;5671;47.936;8.716;2023-04-12T16:00:40;10.40;62.10
11229;DHT22;5671;47.936;8.716;2023-04-12T16:03:07;10.40;62.70
11229;DHT22;5671;47.936;8.716;2023-04-12T16:05:35;10.30;63.00
11229;DHT22;5671;47.936;8.716;2023-04-12T16:08:02;10.20;64.00